createdAt,value
2022-07-27T00:01:10.462Z,21.50
2022-07-27T00:03:38.840Z,21.60
2022-07-27T00:06:08.707Z,21.50
2022-07-27T00:08:37.183Z,21.40
2022-07-27T00:11:05.394Z,21.40
2022-07-27T00:13:33.708Z,21.40
2022-07-27T00:16:01.882Z,21.30
2022-07-27T00:18:30.089Z,21.30
2022-07-27T00:20:58.166Z,21.30
2022-07-27T00:23:27.891Z,21.20
2022-07-27T00:25:56.047Z,21.20
2022-07-27T00:28:24.009Z,21.20
2022-07-27T00:30:52.145Z,21.10
2022-07-27T00:33:20.225Z,21.20
2022-07-27T00:35:48.287Z,21.20
2022-07-27T00:38:16.674Z,21.20
2022-07-27T00:40:46.223Z,21.20
2022-07-27T00:43:15.607Z,21.10
2022-07-27T00:45:43.715Z,21.20
2022-07-27T00:48:12.071Z,21.20
2022-07-27T00:50:43.069Z,21.20
2022-07-27T00:53:11.765Z,21.20
2022-07-27T00:55:40.946Z,21.20
2022-07-27T00:58:10.650Z,21.30
2022-07-27T01:00:39.155Z,21.30
2022-07-27T01:03:09.204Z,21.30
2022-07-27T01:05:42.607Z,21.30
2022-07-27T01:08:13.749Z,21.30
2022-07-27T01:10:43.278Z,21.40
2022-07-27T01:13:13.738Z,21.30
2022-07-27T01:15:43.170Z,21.30
2022-07-27T01:18:15.177Z,21.30
2022-07-27T01:20:43.648Z,21.30
2022-07-27T01:23:13.211Z,21.30
2022-07-27T01:25:43.881Z,21.20
2022-07-27T01:28:11.957Z,21.20
2022-07-27T01:30:40.175Z,21.10
2022-07-27T01:33:10.167Z,21.10
2022-07-27T01:35:39.609Z,21.00
2022-07-27T01:38:09.622Z,20.90
2022-07-27T01:40:39.913Z,20.90
2022-07-27T01:43:08.290Z,20.80
2022-07-27T01:45:36.459Z,20.70
2022-07-27T01:48:04.636Z,20.70
2022-07-27T01:50:32.907Z,20.70
2022-07-27T01:53:00.965Z,20.60
2022-07-27T01:55:31.061Z,20.60
2022-07-27T01:58:08.347Z,20.60
2022-07-27T02:00:37.198Z,20.60
2022-07-27T02:03:06.840Z,20.50
2022-07-27T02:05:35.276Z,20.50
2022-07-27T02:08:03.457Z,20.50
2022-07-27T02:10:31.677Z,20.50
2022-07-27T02:12:58.743Z,20.40
2022-07-27T02:15:43.187Z,20.30
2022-07-27T02:18:26.677Z,20.30
2022-07-27T02:21:00.729Z,20.30
2022-07-27T02:23:29.001Z,20.20
2022-07-27T02:25:56.973Z,20.20
2022-07-27T02:28:25.095Z,20.30
2022-07-27T02:30:54.588Z,20.20
2022-07-27T02:33:22.746Z,20.20
2022-07-27T02:35:52.120Z,20.10
2022-07-27T02:38:20.348Z,20.10
2022-07-27T02:40:48.407Z,20.20
2022-07-27T02:43:16.495Z,20.30
2022-07-27T02:45:46.652Z,20.20
2022-07-27T02:48:16.485Z,20.30
2022-07-27T02:50:44.781Z,20.30
2022-07-27T02:53:12.735Z,20.30
2022-07-27T02:55:41.000Z,20.20
2022-07-27T02:58:09.022Z,20.30
2022-07-27T03:00:37.236Z,20.20
2022-07-27T03:03:05.283Z,20.20
2022-07-27T03:05:34.858Z,20.20
2022-07-27T03:08:04.025Z,20.30
2022-07-27T03:10:32.332Z,20.30
2022-07-27T03:13:00.375Z,20.30
2022-07-27T03:15:29.577Z,20.30
2022-07-27T03:17:57.643Z,20.30
2022-07-27T03:20:25.785Z,20.40
2022-07-27T03:22:55.240Z,20.30
2022-07-27T03:25:23.543Z,20.30
2022-07-27T03:27:51.957Z,20.30
2022-07-27T03:30:20.108Z,20.40
2022-07-27T03:32:48.829Z,20.40
2022-07-27T03:35:17.016Z,20.30
2022-07-27T03:37:47.789Z,20.30
2022-07-27T03:40:17.449Z,20.40
2022-07-27T03:42:46.069Z,20.50
2022-07-27T03:45:14.091Z,20.50
2022-07-27T03:47:42.249Z,20.60
2022-07-27T03:50:10.531Z,20.50
2022-07-27T03:52:38.599Z,20.50
2022-07-27T03:55:07.611Z,20.50
2022-07-27T03:57:37.054Z,20.50
2022-07-27T04:00:06.494Z,20.50
2022-07-27T04:02:34.580Z,20.50
2022-07-27T04:05:02.711Z,20.40
2022-07-27T04:07:31.116Z,20.40
2022-07-27T04:09:59.197Z,20.40
2022-07-27T04:12:27.409Z,20.40
2022-07-27T04:14:56.797Z,20.40
2022-07-27T04:17:54.589Z,20.40
2022-07-27T04:20:13.134Z,20.30
2022-07-27T04:22:42.748Z,20.30
2022-07-27T04:25:11.754Z,20.20
2022-07-27T04:27:39.887Z,20.20
2022-07-27T04:30:10.985Z,20.20
2022-07-27T04:32:39.125Z,20.20
2022-07-27T04:35:08.761Z,20.20
2022-07-27T04:37:36.847Z,20.30
2022-07-27T04:40:07.120Z,20.40
2022-07-27T04:42:35.197Z,20.40
2022-07-27T04:45:03.980Z,20.40
2022-07-27T04:47:33.430Z,20.50
2022-07-27T04:50:01.608Z,20.40
2022-07-27T04:52:29.645Z,20.50
2022-07-27T04:54:57.800Z,20.50
2022-07-27T04:57:25.866Z,20.50
2022-07-27T04:59:53.944Z,20.40
2022-07-27T05:02:22.496Z,20.40
2022-07-27T05:04:52.143Z,20.30
2022-07-27T05:07:20.264Z,20.30
2022-07-27T05:09:48.197Z,20.40
2022-07-27T05:12:16.243Z,20.50
2022-07-27T05:14:44.445Z,20.50
2022-07-27T05:17:12.413Z,20.50
2022-07-27T05:19:41.026Z,20.50
2022-07-27T05:22:10.786Z,20.50
2022-07-27T05:24:38.984Z,20.40
2022-07-27T05:27:07.083Z,20.50
2022-07-27T05:29:35.155Z,20.50
2022-07-27T05:32:03.389Z,20.50
2022-07-27T05:34:31.794Z,20.40
2022-07-27T05:36:59.914Z,20.50
2022-07-27T05:39:29.500Z,20.60
2022-07-27T05:41:57.607Z,20.70
2022-07-27T05:44:25.654Z,20.90
2022-07-27T05:46:53.600Z,21.10
2022-07-27T05:49:22.246Z,21.10
2022-07-27T05:51:50.439Z,21.30
2022-07-27T05:54:18.595Z,21.40
2022-07-27T05:56:48.424Z,21.40
2022-07-27T05:59:16.598Z,21.50
2022-07-27T06:01:44.699Z,21.60
2022-07-27T06:04:14.741Z,21.70
2022-07-27T06:07:00.499Z,21.90
2022-07-27T06:09:28.427Z,22.00
2022-07-27T06:11:58.061Z,21.90
2022-07-27T06:14:26.149Z,22.10
2022-07-27T06:16:54.652Z,22.20
2022-07-27T06:19:22.750Z,22.20
2022-07-27T06:21:53.876Z,22.20
2022-07-27T06:24:22.103Z,22.10
2022-07-27T06:26:50.228Z,22.20
2022-07-27T06:29:19.677Z,22.10
2022-07-27T06:31:47.735Z,22.20
2022-07-27T06:34:17.255Z,22.30
2022-07-27T06:36:45.316Z,22.20
2022-07-27T06:39:14.033Z,22.10
2022-07-27T06:41:42.227Z,22.10
2022-07-27T06:44:10.197Z,22.10
2022-07-27T06:46:39.726Z,22.40
2022-07-27T06:49:07.831Z,22.60
2022-07-27T06:51:36.033Z,22.80
2022-07-27T06:54:05.532Z,23.00
2022-07-27T06:56:33.987Z,23.20
2022-07-27T06:59:02.034Z,23.30
2022-07-27T07:01:30.037Z,23.30
2022-07-27T07:04:00.128Z,23.60
2022-07-27T07:06:28.398Z,23.90
2022-07-27T07:08:56.332Z,24.20
2022-07-27T07:11:24.476Z,24.40
2022-07-27T07:13:52.470Z,24.60
2022-07-27T07:16:20.681Z,24.50
2022-07-27T07:18:52.247Z,24.50
2022-07-27T07:21:22.304Z,24.60
2022-07-27T07:23:50.406Z,24.90
2022-07-27T07:26:18.566Z,24.90
2022-07-27T07:28:46.575Z,25.00
2022-07-27T07:31:14.852Z,25.00
2022-07-27T07:33:42.905Z,25.10
2022-07-27T07:36:14.628Z,25.10
2022-07-27T07:38:44.836Z,25.10
2022-07-27T07:41:13.687Z,25.40
2022-07-27T07:43:42.415Z,25.50
2022-07-27T07:46:10.677Z,25.60
2022-07-27T07:48:39.848Z,25.90
2022-07-27T07:51:07.882Z,25.70
2022-07-27T07:53:41.107Z,25.70
2022-07-27T07:56:11.375Z,25.90
2022-07-27T07:58:39.660Z,26.60
2022-07-27T08:01:07.743Z,27.10
2022-07-27T08:03:35.877Z,27.10
2022-07-27T08:06:03.938Z,27.30
2022-07-27T08:08:32.036Z,27.50
2022-07-27T08:11:00.029Z,27.70
2022-07-27T08:13:29.616Z,27.90
2022-07-27T08:15:57.628Z,27.90
2022-07-27T08:18:25.739Z,28.00
2022-07-27T08:20:53.748Z,27.90
2022-07-27T08:23:21.958Z,28.00
2022-07-27T08:25:50.038Z,28.30
2022-07-27T08:28:18.017Z,28.50
2022-07-27T08:30:49.418Z,28.50
2022-07-27T08:33:17.634Z,28.60
2022-07-27T08:35:46.553Z,28.60
2022-07-27T08:38:14.749Z,28.40
2022-07-27T08:40:45.875Z,28.30
2022-07-27T08:43:23.625Z,28.00
2022-07-27T08:45:57.479Z,27.80
2022-07-27T08:48:26.212Z,27.70
2022-07-27T08:50:54.573Z,27.60
2022-07-27T08:53:23.767Z,27.70
2022-07-27T08:55:52.118Z,27.60
2022-07-27T08:58:20.466Z,27.60
2022-07-27T09:00:51.030Z,27.40
2022-07-27T09:03:22.889Z,27.40
2022-07-27T09:05:52.839Z,27.30
2022-07-27T09:08:24.532Z,27.10
2022-07-27T09:10:54.477Z,27.10
2022-07-27T09:13:25.151Z,26.80
2022-07-27T09:18:44.645Z,26.70
2022-07-27T09:21:15.566Z,26.90
2022-07-27T09:23:45.861Z,26.90
2022-07-27T09:26:31.117Z,26.90
2022-07-27T09:29:02.658Z,27.00
2022-07-27T09:31:31.246Z,27.10
2022-07-27T09:34:03.081Z,27.10
2022-07-27T09:36:32.082Z,27.00
2022-07-27T09:39:03.935Z,26.50
2022-07-27T09:41:43.315Z,26.50
2022-07-27T09:44:31.437Z,26.30
2022-07-27T09:47:00.604Z,26.40
2022-07-27T09:49:32.325Z,26.30
2022-07-27T09:52:02.168Z,26.70
2022-07-27T09:54:44.155Z,26.90
2022-07-27T09:57:12.345Z,27.30
2022-07-27T09:59:40.679Z,27.60
2022-07-27T10:02:09.002Z,27.90
2022-07-27T10:04:38.920Z,28.30
2022-07-27T10:07:12.384Z,28.80
2022-07-27T10:09:42.126Z,29.80
2022-07-27T10:12:10.674Z,31.10
2022-07-27T10:14:38.765Z,31.90
2022-07-27T10:17:10.698Z,33.10
2022-07-27T10:19:47.654Z,33.70
2022-07-27T10:22:15.989Z,34.50
2022-07-27T10:24:44.994Z,35.10
2022-07-27T10:27:22.481Z,35.30
2022-07-27T10:29:52.406Z,35.20
2022-07-27T10:32:28.817Z,35.70
2022-07-27T10:34:58.937Z,35.40
2022-07-27T10:37:28.678Z,35.30
2022-07-27T10:40:13.178Z,34.60
2022-07-27T10:42:41.844Z,33.60
2022-07-27T10:45:12.441Z,32.50
2022-07-27T10:47:44.772Z,32.30
2022-07-27T10:50:33.624Z,32.00
2022-07-27T10:53:07.676Z,31.60
2022-07-27T10:55:51.661Z,31.00
2022-07-27T10:58:45.708Z,30.40
2022-07-27T11:01:15.947Z,30.20
2022-07-27T11:03:49.426Z,30.20
2022-07-27T11:07:15.078Z,31.30
2022-07-27T11:12:02.080Z,33.70
2022-07-27T11:14:31.820Z,34.00
2022-07-27T11:17:24.332Z,33.30
2022-07-27T11:19:53.769Z,32.50
2022-07-27T11:25:20.208Z,31.30
2022-07-27T11:27:49.371Z,30.40
2022-07-27T11:30:24.667Z,30.10
2022-07-27T11:32:52.766Z,29.80
2022-07-27T11:35:20.739Z,29.70
2022-07-27T11:38:01.585Z,29.30
2022-07-27T11:43:37.244Z,29.40
2022-07-27T11:46:18.279Z,29.10
2022-07-27T11:49:17.983Z,28.80
2022-07-27T11:51:42.405Z,28.70
2022-07-27T11:54:13.355Z,28.50
2022-07-27T11:56:44.644Z,28.40
2022-07-27T11:59:17.941Z,28.50
2022-07-27T12:01:52.561Z,28.50
2022-07-27T12:04:24.395Z,28.60
2022-07-27T12:06:59.527Z,28.60
2022-07-27T12:09:38.289Z,28.70
2022-07-27T12:12:12.141Z,28.70
2022-07-27T12:14:42.230Z,28.70
2022-07-27T12:17:28.260Z,28.70
2022-07-27T12:20:03.231Z,28.90
2022-07-27T12:22:34.137Z,28.90
2022-07-27T12:25:12.607Z,29.10
2022-07-27T12:27:55.711Z,29.30
2022-07-27T12:30:31.220Z,29.20
2022-07-27T12:33:00.004Z,29.00
2022-07-27T12:35:35.909Z,28.80
2022-07-27T12:38:06.793Z,28.80
2022-07-27T12:40:43.604Z,28.60
2022-07-27T12:43:11.720Z,28.50
2022-07-27T12:45:40.296Z,28.50
2022-07-27T12:48:11.103Z,28.60
2022-07-27T12:50:40.342Z,28.70
2022-07-27T12:53:09.548Z,28.70
2022-07-27T12:55:39.137Z,28.70
2022-07-27T12:58:11.284Z,28.60
2022-07-27T13:00:39.480Z,28.40
2022-07-27T13:03:08.572Z,28.00
2022-07-27T13:05:37.179Z,27.60
2022-07-27T13:08:05.854Z,27.50
2022-07-27T13:10:34.111Z,27.50
2022-07-27T13:13:03.927Z,27.30
2022-07-27T13:15:32.139Z,27.00
2022-07-27T13:18:00.187Z,26.90
2022-07-27T13:20:28.530Z,26.80
2022-07-27T13:22:56.736Z,26.80
2022-07-27T13:25:24.879Z,26.90
2022-07-27T13:27:53.072Z,26.80
2022-07-27T13:30:22.992Z,27.00
2022-07-27T13:32:51.145Z,27.10
2022-07-27T13:35:19.135Z,27.20
2022-07-27T13:37:47.212Z,27.20
2022-07-27T13:40:16.846Z,27.20
2022-07-27T13:42:44.849Z,26.90
2022-07-27T13:45:13.459Z,26.80
2022-07-27T13:47:43.549Z,26.90
2022-07-27T13:50:18.249Z,26.50
2022-07-27T13:52:48.293Z,26.50
2022-07-27T13:55:17.608Z,26.60
2022-07-27T13:57:46.551Z,26.70
2022-07-27T14:00:15.590Z,26.80
2022-07-27T14:02:46.062Z,26.90
2022-07-27T14:05:15.787Z,27.00
2022-07-27T14:07:44.786Z,27.00
2022-07-27T14:10:31.195Z,27.00
2022-07-27T14:13:07.417Z,27.00
2022-07-27T14:15:50.507Z,27.10
2022-07-27T14:18:25.530Z,27.10
2022-07-27T14:20:54.213Z,27.10
2022-07-27T14:23:22.588Z,27.10
2022-07-27T14:25:50.724Z,27.00
2022-07-27T14:28:18.826Z,27.10
2022-07-27T14:30:47.437Z,27.10
2022-07-27T14:33:15.869Z,27.10
2022-07-27T14:35:45.797Z,27.00
2022-07-27T14:38:28.347Z,26.90
2022-07-27T14:40:59.626Z,26.80
2022-07-27T14:43:28.570Z,26.90
2022-07-27T14:45:56.682Z,26.90
2022-07-27T14:48:37.084Z,26.80
2022-07-27T14:51:14.302Z,26.90
2022-07-27T14:53:42.504Z,26.90
2022-07-27T14:56:10.462Z,26.90
2022-07-27T14:58:38.412Z,26.90
2022-07-27T15:01:06.614Z,26.90
2022-07-27T15:03:34.714Z,26.70
2022-07-27T15:06:02.868Z,26.70
2022-07-27T15:08:32.315Z,26.80
2022-07-27T15:11:00.425Z,26.90
2022-07-27T15:13:28.412Z,26.80
2022-07-27T15:15:58.126Z,26.90
2022-07-27T15:18:26.306Z,26.90
2022-07-27T15:20:54.415Z,27.10
2022-07-27T15:23:22.512Z,27.00
2022-07-27T15:25:51.858Z,27.10
2022-07-27T15:28:20.582Z,27.10
2022-07-27T15:30:48.705Z,27.00
2022-07-27T15:33:16.676Z,27.10
2022-07-27T15:35:44.848Z,26.90
2022-07-27T15:38:12.979Z,26.90
2022-07-27T15:40:42.456Z,26.70
2022-07-27T15:43:13.923Z,26.60
2022-07-27T15:45:43.159Z,26.50
2022-07-27T15:48:12.708Z,26.40
2022-07-27T15:50:43.760Z,26.40
2022-07-27T15:53:13.413Z,26.30
2022-07-27T15:55:42.845Z,26.40
2022-07-27T15:58:13.592Z,26.40
2022-07-27T16:00:41.879Z,26.30
2022-07-27T16:03:10.482Z,26.30
2022-07-27T16:05:38.795Z,26.40
2022-07-27T16:08:09.147Z,26.00
2022-07-27T16:10:37.697Z,26.10
2022-07-27T16:13:06.442Z,25.80
2022-07-27T16:15:54.689Z,25.90
2022-07-27T16:18:22.893Z,26.00
2022-07-27T16:20:51.725Z,25.90
2022-07-27T16:23:22.017Z,26.00
2022-07-27T16:26:03.923Z,26.00
2022-07-27T16:28:34.634Z,26.00
2022-07-27T16:31:04.960Z,26.00
2022-07-27T16:33:33.224Z,26.00
2022-07-27T16:36:01.469Z,26.00
2022-07-27T16:38:30.183Z,26.00
2022-07-27T16:40:58.375Z,26.00
2022-07-27T16:43:37.467Z,26.00
2022-07-27T16:46:10.231Z,26.00
2022-07-27T16:48:42.331Z,25.80
2022-07-27T16:51:12.839Z,25.70
2022-07-27T16:53:42.409Z,25.70
2022-07-27T16:56:11.230Z,25.80
2022-07-27T16:58:39.965Z,25.80
2022-07-27T17:01:09.783Z,25.80
2022-07-27T17:03:50.099Z,25.80
2022-07-27T17:06:19.832Z,25.80
2022-07-27T17:08:47.741Z,25.70
2022-07-27T17:11:17.472Z,25.70
2022-07-27T17:13:50.407Z,25.80
2022-07-27T17:16:20.400Z,25.80
2022-07-27T17:18:48.481Z,25.80
2022-07-27T17:21:16.421Z,25.80
2022-07-27T17:23:45.069Z,25.70
2022-07-27T17:26:14.367Z,25.70
2022-07-27T17:28:42.895Z,25.70
2022-07-27T17:31:13.041Z,25.60
2022-07-27T17:33:43.050Z,25.50
2022-07-27T17:36:15.180Z,25.50
2022-07-27T17:38:44.144Z,25.30
2022-07-27T17:41:12.417Z,25.40
2022-07-27T17:43:40.525Z,25.50
2022-07-27T17:46:09.946Z,25.40
2022-07-27T17:48:39.138Z,25.30
2022-07-27T17:51:10.665Z,25.30
2022-07-27T17:53:39.141Z,25.20
2022-07-27T17:56:08.231Z,25.10
2022-07-27T17:58:37.509Z,25.10
2022-07-27T18:01:06.269Z,25.20
2022-07-27T18:03:34.827Z,25.10
2022-07-27T18:06:03.211Z,25.20
2022-07-27T18:08:32.694Z,25.20
2022-07-27T18:11:00.708Z,25.10
2022-07-27T18:13:38.943Z,25.20
2022-07-27T18:16:09.132Z,25.30
2022-07-27T18:18:37.513Z,25.20
2022-07-27T18:21:06.103Z,25.10
2022-07-27T18:23:36.119Z,25.00
2022-07-27T18:26:04.747Z,25.00
2022-07-27T18:28:39.187Z,25.00
2022-07-27T18:31:09.528Z,24.90
2022-07-27T18:33:38.102Z,24.90
2022-07-27T18:36:06.680Z,25.00
2022-07-27T18:38:36.028Z,24.90
2022-07-27T18:41:04.069Z,24.90
2022-07-27T18:43:32.107Z,24.80
2022-07-27T18:46:00.333Z,24.70
2022-07-27T18:48:28.850Z,24.60
2022-07-27T18:50:57.288Z,24.70
2022-07-27T18:53:25.541Z,24.50
2022-07-27T18:55:56.707Z,24.50
2022-07-27T18:58:25.738Z,24.50
2022-07-27T19:00:54.800Z,24.50
2022-07-27T19:03:24.633Z,24.60
2022-07-27T19:05:55.568Z,24.60
2022-07-27T19:08:24.021Z,24.70
2022-07-27T19:10:52.340Z,24.70
2022-07-27T19:13:22.118Z,24.60
2022-07-27T19:15:50.203Z,24.60
2022-07-27T19:18:18.304Z,24.50
2022-07-27T19:20:46.407Z,24.40
2022-07-27T19:23:14.421Z,24.30
2022-07-27T19:25:43.457Z,24.10
2022-07-27T19:28:12.074Z,23.90
2022-07-27T19:30:42.403Z,23.90
2022-07-27T19:33:10.931Z,23.70
2022-07-27T19:35:38.986Z,23.60
2022-07-27T19:38:08.382Z,23.40
2022-07-27T19:40:45.568Z,23.20
2022-07-27T19:43:15.162Z,23.10
2022-07-27T19:45:44.990Z,23.00
2022-07-27T19:48:13.304Z,23.10
2022-07-27T19:50:42.009Z,23.00
2022-07-27T19:53:10.274Z,22.90
2022-07-27T19:55:38.259Z,22.70
2022-07-27T19:58:06.578Z,22.50
2022-07-27T20:00:34.695Z,22.50
2022-07-27T20:03:04.495Z,22.50
2022-07-27T20:05:32.649Z,22.60
2022-07-27T20:08:00.729Z,22.50
2022-07-27T20:10:28.822Z,22.40
2022-07-27T20:12:57.001Z,22.40
2022-07-27T20:15:26.341Z,22.30
2022-07-27T20:17:54.635Z,22.20
2022-07-27T20:20:24.451Z,22.30
2022-07-27T20:22:53.031Z,22.10
2022-07-27T20:25:21.833Z,22.10
2022-07-27T20:27:50.156Z,22.10
2022-07-27T20:30:20.140Z,22.00
2022-07-27T20:32:49.137Z,21.90
2022-07-27T20:35:17.557Z,21.90
2022-07-27T20:37:47.653Z,21.90
2022-07-27T20:40:16.487Z,22.00
2022-07-27T20:42:44.649Z,21.70
2022-07-27T20:45:14.600Z,21.70
2022-07-27T20:47:43.575Z,21.60
2022-07-27T20:50:13.675Z,21.60
2022-07-27T20:52:43.044Z,21.50
2022-07-27T20:55:12.936Z,21.40
2022-07-27T20:57:41.253Z,21.40
2022-07-27T21:00:10.141Z,21.40
2022-07-27T21:02:38.361Z,21.20
2022-07-27T21:05:07.810Z,20.90
2022-07-27T21:07:35.917Z,20.90
2022-07-27T21:10:04.730Z,20.90
2022-07-27T21:12:34.680Z,21.00
2022-07-27T21:15:02.720Z,21.00
2022-07-27T21:17:30.648Z,21.10
2022-07-27T21:19:58.862Z,21.20
2022-07-27T21:22:27.150Z,21.00
2022-07-27T21:24:54.581Z,21.00
2022-07-27T21:27:22.654Z,21.00
2022-07-27T21:29:52.517Z,20.70
2022-07-27T21:32:20.566Z,20.80
2022-07-27T21:34:48.475Z,20.90
2022-07-27T21:37:16.477Z,20.80
2022-07-27T21:39:46.215Z,20.80
2022-07-27T21:42:14.441Z,20.70
2022-07-27T21:44:42.637Z,20.70
2022-07-27T21:47:14.314Z,20.80
2022-07-27T21:49:42.643Z,20.60
2022-07-27T21:52:11.266Z,20.60
2022-07-27T21:54:39.843Z,20.50
2022-07-27T21:57:08.079Z,20.60
2022-07-27T21:59:36.215Z,20.70
2022-07-27T22:02:04.547Z,20.70
2022-07-27T22:04:34.348Z,20.70
2022-07-27T22:07:02.406Z,20.70
2022-07-27T22:09:30.513Z,20.50
2022-07-27T22:11:58.623Z,20.50
2022-07-27T22:14:26.620Z,20.40
2022-07-27T22:16:54.829Z,20.40
2022-07-27T22:19:23.503Z,20.30
2022-07-27T22:21:52.969Z,20.10
2022-07-27T22:24:20.921Z,20.10
2022-07-27T22:26:49.976Z,20.00
2022-07-27T22:29:18.093Z,20.00
2022-07-27T22:31:46.128Z,19.90
2022-07-27T22:34:14.766Z,19.90
2022-07-27T22:36:43.096Z,20.10
2022-07-27T22:39:12.868Z,20.10
2022-07-27T22:41:41.555Z,19.90
2022-07-27T22:44:09.545Z,20.00
2022-07-27T22:46:37.943Z,20.00
2022-07-27T22:49:06.041Z,19.90
2022-07-27T22:51:50.019Z,19.90
2022-07-27T22:54:22.523Z,19.90
2022-07-27T22:56:50.677Z,20.00
2022-07-27T22:59:18.698Z,19.90
2022-07-27T23:01:48.248Z,19.90
2022-07-27T23:04:18.608Z,19.90
2022-07-27T23:06:47.134Z,20.00
2022-07-27T23:09:15.553Z,19.90
2022-07-27T23:11:45.336Z,19.90
2022-07-27T23:14:14.123Z,19.90
2022-07-27T23:16:42.743Z,19.80
2022-07-27T23:19:11.027Z,19.70
2022-07-27T23:21:39.467Z,19.70
2022-07-27T23:24:08.130Z,19.70
2022-07-27T23:26:37.930Z,19.60
2022-07-27T23:29:07.337Z,19.50
2022-07-27T23:31:35.582Z,19.50
2022-07-27T23:34:03.615Z,19.70
2022-07-27T23:36:31.834Z,19.80
2022-07-27T23:38:59.901Z,19.70
2022-07-27T23:41:28.057Z,19.70
2022-07-27T23:43:56.004Z,19.60
2022-07-27T23:46:25.569Z,19.50
2022-07-27T23:48:53.667Z,19.40
2022-07-27T23:51:22.033Z,19.30
2022-07-27T23:53:50.051Z,19.20
2022-07-27T23:56:18.352Z,19.20
2022-07-27T23:58:46.350Z,19.30
